Time;durP1;ratioP1;P1;durP2;ratioP2;P2;SDS_P1;SDS_P2;PMS_P1;PMS_P2;Temp;Humidity;BMP_temperature;BMP_pressure;BME280_temperature;BME280_humidity;BME280_pressure;Samples;Min_cycle;Max_cycle;Signal;HPM_P1;HPM_P2
2023/01/18 00:01:38;;;;;;;78.30;17.90;;;-0.80;99.90;;;;;;6221962;23;20429;-82
2023/01/18 00:04:04;;;;;;;91.43;19.83;;;-0.90;99.90;;;;;;6221268;23;20148;-82
2023/01/18 00:06:30;;;;;;;80.57;18.20;;;-0.90;99.90;;;;;;6221512;23;20387;-82
2023/01/18 00:08:55;;;;;;;80.60;18.37;;;-0.90;99.90;;;;;;6222132;23;20168;-82
2023/01/18 00:11:21;;;;;;;78.73;16.80;;;-1.00;99.90;;;;;;6221253;23;20144;-82
2023/01/18 00:13:47;;;;;;;77.10;19.47;;;-1.00;99.90;;;;;;6221658;23;20606;-82
2023/01/18 00:16:17;;;;;;;77.20;17.77;;;-1.00;99.90;;;;;;6194700;23;20610;-82
2023/01/18 00:18:43;;;;;;;78.63;17.48;;;-1.00;99.90;;;;;;6194880;23;20383;-82
2023/01/18 00:21:11;;;;;;;77.75;19.00;;;-1.00;99.90;;;;;;6194410;23;20156;-82
2023/01/18 00:23:39;;;;;;;74.25;17.58;;;-1.00;99.90;;;;;;6221077;23;20514;-82
2023/01/18 00:26:08;;;;;;;78.13;17.08;;;-1.00;99.90;;;;;;6194922;23;20227;-82
2023/01/18 00:28:34;;;;;;;77.70;17.88;;;-1.00;99.90;;;;;;6204660;23;20163;-82
2023/01/18 00:31:00;;;;;;;79.82;18.35;;;-1.00;99.90;;;;;;6191354;23;20137;-82
2023/01/18 00:33:26;;;;;;;78.33;15.70;;;-0.90;99.90;;;;;;6164815;23;20232;-82
2023/01/18 00:36:02;;;;;;;74.60;14.83;;;-0.80;99.90;;;;;;6191575;23;20188;-82
2023/01/18 00:38:28;;;;;;;84.47;17.48;;;-0.90;99.90;;;;;;6164813;23;20145;-82
2023/01/18 00:40:54;;;;;;;84.32;18.13;;;-0.90;99.90;;;;;;6165352;23;20152;-82
2023/01/18 00:43:38;;;;;;;78.07;17.25;;;-1.00;99.90;;;;;;6192108;23;20145;-82
2023/01/18 00:46:05;;;;;;;84.53;19.27;;;-1.00;99.90;;;;;;6164474;23;20176;-82
2023/01/18 00:48:31;;;;;;;82.38;18.05;;;-1.00;99.90;;;;;;6164503;23;20172;-82
2023/01/18 00:50:56;;;;;;;79.83;18.30;;;-1.00;99.90;;;;;;6165235;23;20204;-82
2023/01/18 00:53:22;;;;;;;80.47;17.40;;;-1.00;99.90;;;;;;6191948;23;20141;-82
2023/01/18 00:55:48;;;;;;;77.13;16.43;;;-1.10;99.90;;;;;;6192493;23;20582;-82
2023/01/18 00:58:15;;;;;;;79.38;19.25;;;-1.10;99.90;;;;;;6192981;23;20498;-82
2023/01/18 01:00:41;;;;;;;77.00;17.20;;;-1.10;99.90;;;;;;6194650;23;20228;-84
2023/01/18 01:03:07;;;;;;;78.90;17.00;;;-1.20;99.90;;;;;;6194257;23;20141;-82
2023/01/18 01:08:17;;;;;;;79.95;15.82;;;-1.30;99.90;;;;;;6192708;23;20184;-81
2023/01/18 01:10:47;;;;;;;74.73;15.63;;;-1.20;99.90;;;;;;6192808;23;20586;-82
2023/01/18 01:27:09;;;;;;;78.30;14.77;;;-1.30;99.90;;;;;;6192571;23;20176;-84
2023/01/18 01:29:35;;;;;;;77.72;17.80;;;-1.30;99.90;;;;;;6194889;23;20633;-84
2023/01/18 01:32:02;;;;;;;74.63;14.97;;;-1.30;99.90;;;;;;6223152;23;20147;-82
2023/01/18 01:34:31;;;;;;;77.25;15.57;;;-1.20;99.90;;;;;;6195222;23;20380;-84
2023/01/18 01:36:57;;;;;;;78.20;16.33;;;-1.30;99.90;;;;;;6196092;23;20164;-84
2023/01/18 01:39:23;;;;;;;72.47;14.93;;;-1.40;99.90;;;;;;6222653;23;20224;-84
2023/01/18 01:41:49;;;;;;;73.38;14.95;;;-1.30;99.90;;;;;;6222968;23;20852;-83
2023/01/18 01:44:20;;;;;;;77.10;13.47;;;-1.20;99.90;;;;;;6222514;23;20227;-84
2023/01/18 01:47:03;;;;;;;75.72;16.38;;;-1.20;99.90;;;;;;6222183;23;20756;-84
2023/01/18 01:49:40;;;;;;;81.03;16.23;;;-1.20;99.90;;;;;;6195962;23;20177;-84
2023/01/18 01:52:09;;;;;;;76.97;17.02;;;-1.30;99.90;;;;;;6221901;23;20585;-84
2023/01/18 01:54:46;;;;;;;80.35;16.90;;;-1.30;99.90;;;;;;6195459;23;20224;-84
2023/01/18 01:57:18;;;;;;;77.88;15.85;;;-1.30;99.90;;;;;;6195482;23;20268;-83
2023/01/18 01:59:56;;;;;;;72.50;13.80;;;-1.40;99.90;;;;;;6222494;23;20140;-83
2023/01/18 02:02:22;;;;;;;78.05;16.10;;;-1.30;99.90;;;;;;6223029;23;20212;-83
2023/01/18 02:04:52;;;;;;;76.27;15.50;;;-1.30;99.90;;;;;;6222434;23;20141;-83
2023/01/18 02:07:19;;;;;;;85.05;16.10;;;-1.40;99.90;;;;;;6195706;23;20168;-83
2023/01/18 02:09:45;;;;;;;74.25;15.90;;;-1.30;99.90;;;;;;6222106;23;20164;-84
2023/01/18 02:12:11;;;;;;;77.13;17.38;;;-1.40;99.90;;;;;;6195496;23;20149;-83
2023/01/18 02:14:37;;;;;;;76.00;17.55;;;-1.40;99.90;;;;;;6195738;23;20223;-83
2023/01/18 02:17:17;;;;;;;75.28;14.30;;;-1.50;99.90;;;;;;6195743;23;20169;-83
2023/01/18 02:19:51;;;;;;;76.10;16.40;;;-1.50;99.90;;;;;;6222780;23;20132;-83
2023/01/18 02:22:29;;;;;;;76.25;15.02;;;-1.50;99.90;;;;;;6222416;23;20223;-84
2023/01/18 02:25:00;;;;;;;75.00;16.25;;;-1.50;99.90;;;;;;6222406;23;20132;-84
2023/01/18 02:27:49;;;;;;;76.10;15.45;;;-1.40;99.90;;;;;;6219068;23;20165;-83
2023/01/18 02:30:28;;;;;;;75.20;16.92;;;-1.50;99.90;;;;;;6166020;23;20184;-84
2023/01/18 02:33:11;;;;;;;75.50;14.68;;;-1.50;99.90;;;;;;6165755;23;20145;-84
2023/01/18 02:35:52;;;;;;;76.43;14.05;;;-1.50;99.90;;;;;;6165443;23;20144;-83
2023/01/18 02:38:35;;;;;;;74.82;12.68;;;-1.50;99.90;;;;;;6165729;23;20144;-83
2023/01/18 02:41:07;;;;;;;72.65;12.90;;;-1.50;99.90;;;;;;6192294;23;20129;-84
2023/01/18 02:46:34;;;;;;;81.25;16.40;;;-1.60;99.90;;;;;;6191666;23;20498;-83
2023/01/18 02:49:10;;;;;;;76.63;16.17;;;-1.60;99.90;;;;;;6191965;23;20157;-84
2023/01/18 02:51:36;;;;;;;73.18;13.85;;;-1.60;99.90;;;;;;6191755;23;20153;-84
2023/01/18 02:54:07;;;;;;;76.82;14.98;;;-1.60;99.90;;;;;;6165989;23;20546;-83
2023/01/18 02:56:41;;;;;;;75.13;16.02;;;-1.60;99.90;;;;;;6165414;23;20165;-83
2023/01/18 02:59:45;;;;;;;75.50;13.40;;;-1.60;99.90;;;;;;6192481;23;20136;-83
2023/01/18 03:02:15;;;;;;;76.78;14.32;;;-1.60;99.90;;;;;;6178137;23;20519;-83
2023/01/18 03:04:55;;;;;;;76.65;14.25;;;-1.60;99.90;;;;;;6165967;23;20137;-83
2023/01/18 03:07:31;;;;;;;74.85;15.52;;;-1.60;99.90;;;;;;6165850;23;20227;-83
2023/01/18 03:10:01;;;;;;;72.65;15.45;;;-1.60;99.90;;;;;;6191822;23;20161;-83
2023/01/18 03:12:48;;;;;;;72.60;16.42;;;-1.60;99.90;;;;;;6191631;23;20145;-83
2023/01/18 03:15:44;;;;;;;73.60;16.55;;;-1.70;99.90;;;;;;6191771;23;20130;-83
2023/01/18 03:20:49;;;;;;;75.63;14.27;;;-1.70;99.90;;;;;;6236869;22;20200;-83
2023/01/18 03:23:40;;;;;;;77.45;16.63;;;-1.60;99.90;;;;;;6221227;23;20140;-83
2023/01/18 03:26:15;;;;;;;77.95;15.82;;;-1.60;99.90;;;;;;6194740;23;20218;-83
2023/01/18 03:35:12;;;;;;;72.90;14.68;;;-1.60;99.90;;;;;;6221623;23;20155;-84
2023/01/18 03:37:41;;;;;;;74.18;13.75;;;-1.70;99.90;;;;;;6220802;23;20179;-84
2023/01/18 03:40:17;;;;;;;73.38;14.38;;;-1.70;99.90;;;;;;6221120;23;20159;-83
2023/01/18 03:43:02;;;;;;;74.55;14.70;;;-1.60;99.90;;;;;;6194718;23;20144;-83
2023/01/18 03:45:37;;;;;;;74.18;15.57;;;-1.60;99.90;;;;;;6221379;23;20153;-83
2023/01/18 03:48:06;;;;;;;72.53;14.95;;;-1.60;99.90;;;;;;6221507;23;20179;-83
2023/01/18 03:51:01;;;;;;;77.63;16.08;;;-1.60;99.90;;;;;;6194790;23;20172;-83
2023/01/18 03:53:38;;;;;;;72.70;14.95;;;-1.60;99.90;;;;;;6210604;23;20223;-83
2023/01/18 03:56:33;;;;;;;81.60;17.00;;;-1.60;99.90;;;;;;6220786;23;20157;-83
2023/01/18 03:59:03;;;;;;;78.00;16.50;;;-1.60;99.90;;;;;;6190707;23;20153;-83
2023/01/18 04:01:29;;;;;;;74.50;16.40;;;-1.60;99.90;;;;;;6221208;23;20144;-83
2023/01/18 04:03:55;;;;;;;75.50;17.08;;;-1.70;99.90;;;;;;6221305;23;20175;-82
2023/01/18 04:06:22;;;;;;;75.10;15.77;;;-1.60;99.90;;;;;;6220603;23;20164;-84
2023/01/18 04:08:49;;;;;;;75.30;17.98;;;-1.60;99.90;;;;;;6221065;23;20251;-83
2023/01/18 04:11:15;;;;;;;74.35;16.45;;;-1.70;99.90;;;;;;6221259;23;20141;-84
2023/01/18 04:13:40;;;;;;;76.30;18.40;;;-1.70;99.90;;;;;;6221625;23;20470;-83
2023/01/18 04:16:06;;;;;;;76.00;16.13;;;-1.70;99.90;;;;;;6221082;23;20427;-83
2023/01/18 04:18:32;;;;;;;77.53;15.27;;;-1.60;99.90;;;;;;6221053;23;20148;-84
2023/01/18 04:20:57;;;;;;;74.23;15.40;;;-1.70;99.90;;;;;;6221001;23;20372;-83
2023/01/18 04:23:23;;;;;;;75.10;15.77;;;-1.70;99.90;;;;;;6220957;23;20141;-83
2023/01/18 04:25:50;;;;;;;86.50;16.30;;;-1.60;99.90;;;;;;6220768;23;20171;-83
2023/01/18 04:32:09;;;;;;;;;;;;;;;;;;;;;
2023/01/18 04:45:45;;;;;;;73.70;15.30;;;-1.70;99.90;;;;;;6016996;23;20157;-84
2023/01/18 04:49:14;;;;;;;;;;;;;;;;;;;;;
2023/01/18 04:52:16;;;;;;;;;;;;;;;;;;;;;
2023/01/18 04:55:29;;;;;;;80.63;14.35;;;-1.80;99.90;;;;;;6039875;23;20167;-85
2023/01/18 04:58:36;;;;;;;76.70;13.35;;;-1.80;99.90;;;;;;6049668;23;20652;-85
2023/01/18 05:01:28;;;;;;;;;;;;;;;;;;;;;
2023/01/18 05:04:50;;;;;;;;;;;;;;;;;;;;;
2023/01/18 05:08:39;;;;;;;;;;;;;;;;;;;;;
2023/01/18 05:14:56;;;;;;;;;;;;;;;;;;;;;
2023/01/18 05:18:01;;;;;;;74.22;14.30;;;-1.90;99.90;;;;;;6152724;22;20224;-85
2023/01/18 05:21:03;;;;;;;72.88;14.93;;;-1.90;99.90;;;;;;6049839;23;20219;-85
2023/01/18 05:24:30;;;;;;;;;;;;;;;;;;;;;
2023/01/18 05:30:46;;;;;;;;;;;;;;;;;;;;;
2023/01/18 05:36:57;;;;;;;;;;;;;;;;;;;;;
2023/01/18 05:40:20;;;;;;;77.30;16.27;;;-1.90;99.90;;;;;;6193115;23;20180;-85
2023/01/18 05:43:12;;;;;;;72.72;15.63;;;-1.90;99.90;;;;;;6131544;23;20155;-85
2023/01/18 05:54:13;;;;;;;84.55;14.77;;;-2.00;99.90;;;;;;5897354;24;20268;-85
2023/01/18 05:57:24;;;;;;;73.03;14.07;;;-2.10;99.90;;;;;;6012530;23;20274;-85
2023/01/18 06:00:54;;;;;;;81.18;15.90;;;-2.00;99.90;;;;;;6015965;23;20164;-85
2023/01/18 06:03:36;;;;;;;75.60;16.08;;;-2.10;99.90;;;;;;5881464;24;20155;-85
2023/01/18 06:06:38;;;;;;;81.95;17.33;;;-2.00;99.90;;;;;;5904556;24;20246;-84
2023/01/18 06:09:40;;;;;;;73.20;14.10;;;-2.00;99.90;;;;;;5916376;24;20521;-85
2023/01/18 06:16:03;;;;;;;86.60;16.27;;;-2.10;99.90;;;;;;6031211;23;20208;-84
2023/01/18 06:19:15;;;;;;;;;;;;;;;;;;;;;
2023/01/18 06:22:15;;;;;;;76.65;16.35;;;-2.00;99.90;;;;;;6161625;23;20223;-85
2023/01/18 06:28:41;;;;;;;80.60;18.00;;;-2.10;99.90;;;;;;6172536;23;20159;-86
2023/01/18 06:31:12;;;;;;;78.25;17.88;;;-2.20;99.90;;;;;;6186645;23;20164;-87
2023/01/18 06:34:05;;;;;;;;;;;;;;;;;;;;;
2023/01/18 06:36:59;;;;;;;;;;;;;;;;;;;;;
2023/01/18 06:40:30;;;;;;;84.68;18.23;;;-2.20;99.90;;;;;;6222385;23;20224;-85
2023/01/18 06:43:34;;;;;;;;;;;;;;;;;;;;;
2023/01/18 06:46:41;;;;;;;;;;;;;;;;;;;;;
2023/01/18 06:49:22;;;;;;;83.75;18.08;;;-2.10;99.90;;;;;;6215714;23;20250;-85
2023/01/18 06:52:33;;;;;;;77.15;17.70;;;-2.00;99.90;;;;;;6194833;23;20145;-85
2023/01/18 06:55:53;;;;;;;;;;;;;;;;;;;;;
2023/01/18 07:02:55;;;;;;;;;;;;;;;;;;;;;
2023/01/18 07:09:38;;;;;;;;;;;;;;;;;;;;;
2023/01/18 07:13:25;;;;;;;84.60;19.13;;;-2.20;99.90;;;;;;6084912;23;20186;-84
2023/01/18 07:16:01;;;;;;;89.82;17.95;;;-2.20;99.90;;;;;;6092340;23;20151;-84
2023/01/18 07:19:03;;;;;;;;;;;;;;;;;;;;;
2023/01/18 07:28:32;;;;;;;;;;;;;;;;;;;;;
2023/01/18 07:34:48;;;;;;;78.93;18.95;;;-2.10;99.90;;;;;;6100722;23;20256;-84
2023/01/18 07:38:02;;;;;;;;;;;;;;;;;;;;;
2023/01/18 07:41:05;;;;;;;;;;;;;;;;;;;;;
2023/01/18 07:43:56;;;;;;;81.65;18.15;;;-2.20;99.90;;;;;;6185028;23;20621;-84
2023/01/18 07:47:44;;;;;;;;;;;;;;;;;;;;;
2023/01/18 07:53:31;;;;;;;82.82;19.20;;;-2.10;99.90;;;;;;6221717;23;20481;-85
2023/01/18 07:56:35;;;;;;;91.72;25.60;;;-2.00;99.90;;;;;;6221980;23;20186;-85
2023/01/18 08:00:00;;;;;;;;;;;;;;;;;;;;;
2023/01/18 08:03:01;;;;;;;89.72;20.40;;;-2.00;99.90;;;;;;6221818;23;20170;-85
2023/01/18 08:06:02;;;;;;;95.05;23.00;;;-1.90;99.90;;;;;;6221968;23;20125;-85
2023/01/18 08:12:32;;;;;;;;;;;;;;;;;;;;;
2023/01/18 08:15:22;;;;;;;84.55;18.25;;;-1.80;99.90;;;;;;6130109;23;20163;-84
2023/01/18 08:18:13;;;;;;;97.70;21.55;;;-1.70;99.90;;;;;;6130613;23;20226;-84
2023/01/18 08:21:39;;;;;;;87.88;19.67;;;-1.70;99.90;;;;;;6130104;23;20162;-84
2023/01/18 08:24:10;;;;;;;85.57;19.27;;;-1.60;99.90;;;;;;6095173;23;20156;-84
2023/01/18 08:26:47;;;;;;;86.03;19.08;;;-1.50;99.90;;;;;;6100942;23;20186;-85
2023/01/18 08:29:16;;;;;;;88.35;20.45;;;-1.50;99.90;;;;;;6077757;23;20171;-85
2023/01/18 08:31:59;;;;;;;85.72;20.80;;;-1.40;99.90;;;;;;6077054;23;20500;-84
2023/01/18 08:34:55;;;;;;;84.10;19.25;;;-1.30;99.90;;;;;;6133520;23;20151;-85
2023/01/18 08:37:47;;;;;;;84.28;20.02;;;-1.20;99.90;;;;;;6175775;23;20165;-87
2023/01/18 08:43:46;;;;;;;86.45;20.38;;;-1.10;99.90;;;;;;6200886;23;20614;-85
2023/01/18 08:46:51;;;;;;;85.25;18.20;;;-1.00;99.90;;;;;;6076299;23;20191;-86
2023/01/18 08:49:53;;;;;;;88.53;22.00;;;-0.90;99.90;;;;;;5964627;24;20178;-86
2023/01/18 08:52:51;;;;;;;84.75;19.98;;;-0.90;99.90;;;;;;6213635;23;20172;-85
2023/01/18 08:59:29;;;;;;;86.68;19.45;;;-0.80;99.90;;;;;;6222223;23;20176;-85
2023/01/18 09:02:10;;;;;;;;;;;;;;;;;;;;;
2023/01/18 09:04:49;;;;;;;94.13;21.35;;;-0.70;99.90;;;;;;6101835;23;20155;-85
2023/01/18 09:08:13;;;;;;;84.45;21.42;;;-0.70;99.90;;;;;;6185727;23;20175;-85
2023/01/18 09:10:48;;;;;;;87.28;23.13;;;-0.60;99.90;;;;;;6205729;23;20172;-85
2023/01/18 09:13:48;;;;;;;90.15;23.30;;;-0.60;99.90;;;;;;6104234;23;20170;-86
2023/01/18 09:16:20;;;;;;;89.75;20.90;;;-0.70;99.90;;;;;;6119328;23;20548;-85
2023/01/18 09:19:07;;;;;;;96.65;23.40;;;-0.60;99.90;;;;;;6207199;23;20165;-85
2023/01/18 09:21:53;;;;;;;;;;;;;;;;;;;;;
2023/01/18 09:24:25;;;;;;;90.93;22.20;;;-0.60;99.90;;;;;;6224098;23;20175;-85
2023/01/18 09:27:05;;;;;;;90.05;24.05;;;-0.50;99.90;;;;;;6191455;23;20165;-85
2023/01/18 09:29:34;;;;;;;94.25;24.65;;;-0.50;99.90;;;;;;6199781;23;20161;-84
2023/01/18 09:32:28;;;;;;;87.75;23.20;;;-0.50;99.90;;;;;;6199420;23;20144;-85
2023/01/18 09:35:26;;;;;;;89.13;22.10;;;-0.40;99.90;;;;;;6226036;23;20120;-85
2023/01/18 09:38:42;;;;;;;88.68;22.17;;;-0.40;99.90;;;;;;6197838;23;20164;-85
2023/01/18 09:41:38;;;;;;;90.28;20.05;;;-0.30;99.90;;;;;;6223813;23;20148;-85
2023/01/18 09:44:49;;;;;;;;;;;;;;;;;;;;;
2023/01/18 09:51:22;;;;;;;90.43;20.35;;;-0.10;99.90;;;;;;6224840;23;20180;-85
2023/01/18 10:01:25;;;;;;;;;;;;;;;;;;;;;
2023/01/18 10:15:31;;;;;;;94.00;22.40;;;0.50;99.90;;;;;;5972061;23;20252;-86
2023/01/18 10:18:56;;;;;;;;;;;;;;;;;;;;;
2023/01/18 10:22:26;;;;;;;96.15;22.52;;;0.60;99.90;;;;;;6048133;23;20598;-85
2023/01/18 10:28:34;;;;;;;103.85;20.33;;;0.70;99.90;;;;;;6079513;22;20277;-86
2023/01/18 10:31:24;;;;;;;112.88;28.50;;;0.80;99.90;;;;;;6252685;23;20162;-86
2023/01/18 10:33:54;;;;;;;94.50;24.02;;;0.90;99.90;;;;;;6252928;23;20128;-86
2023/01/18 10:36:37;;;;;;;99.15;25.00;;;1.00;99.90;;;;;;6252209;22;20209;-86
2023/01/18 10:39:15;;;;;;;94.30;24.20;;;1.10;99.90;;;;;;6252530;23;20131;-86
2023/01/18 10:41:42;;;;;;;96.47;24.38;;;1.10;99.90;;;;;;6224701;23;20132;-87
2023/01/18 10:44:08;;;;;;;87.95;22.95;;;1.20;99.90;;;;;;6224996;23;20205;-87
2023/01/18 10:46:34;;;;;;;88.45;23.98;;;1.30;99.90;;;;;;6250222;23;20647;-87
2023/01/18 10:49:01;;;;;;;93.30;23.23;;;1.20;99.90;;;;;;6249334;23;20171;-87
2023/01/18 10:51:34;;;;;;;88.43;22.98;;;1.30;99.90;;;;;;6252897;23;20159;-87
2023/01/18 10:54:17;;;;;;;92.60;24.42;;;1.40;99.90;;;;;;6256433;23;20136;-87
2023/01/18 10:56:44;;;;;;;108.60;30.63;;;1.40;99.90;;;;;;6228492;23;20171;-87
2023/01/18 10:59:29;;;;;;;95.80;24.50;;;1.50;99.90;;;;;;6227019;23;20155;-87
2023/01/18 11:01:56;;;;;;;93.90;25.17;;;1.60;99.90;;;;;;6231287;23;20151;-87
2023/01/18 11:04:27;;;;;;;93.45;25.92;;;1.70;99.90;;;;;;6228733;23;20179;-89
2023/01/18 11:07:04;;;;;;;91.40;23.00;;;1.80;99.90;;;;;;6228411;23;20168;-88
2023/01/18 11:09:58;;;;;;;90.93;21.88;;;1.90;99.90;;;;;;6254527;23;20195;-89
2023/01/18 11:12:44;;;;;;;83.82;21.77;;;1.90;99.90;;;;;;6227302;23;20231;-87
2023/01/18 11:15:13;;;;;;;85.07;23.55;;;2.00;99.90;;;;;;6225615;23;20569;-88
2023/01/18 11:17:57;;;;;;;84.43;25.13;;;2.10;99.90;;;;;;6252498;22;20163;-87
2023/01/18 11:20:34;;;;;;;86.38;30.45;;;2.20;99.90;;;;;;6252453;23;20489;-87
2023/01/18 11:23:05;;;;;;;86.13;28.15;;;2.20;99.90;;;;;;6252988;23;20124;-86
2023/01/18 11:25:41;;;;;;;83.93;22.05;;;2.30;99.90;;;;;;6225409;23;20148;-87
2023/01/18 11:28:21;;;;;;;80.95;17.80;;;2.40;99.90;;;;;;6251652;23;20197;-87
2023/01/18 11:30:58;;;;;;;80.55;16.30;;;2.50;99.90;;;;;;6251521;23;20229;-87
2023/01/18 11:33:25;;;;;;;80.90;15.00;;;2.50;99.90;;;;;;6224479;23;20605;-87
2023/01/18 11:35:58;;;;;;;87.47;13.55;;;2.50;99.90;;;;;;6250639;22;20136;-87
2023/01/18 11:38:32;;;;;;;84.75;13.77;;;2.40;99.90;;;;;;6223719;23;20148;-87
2023/01/18 11:41:04;;;;;;;83.05;14.27;;;2.40;99.90;;;;;;6223692;23;20151;-87
2023/01/18 11:43:34;;;;;;;83.10;16.75;;;2.50;99.90;;;;;;6251056;23;20140;-87
2023/01/18 11:46:20;;;;;;;78.95;13.68;;;2.50;99.90;;;;;;6226473;23;20168;-87
2023/01/18 11:48:51;;;;;;;79.00;12.80;;;2.50;99.90;;;;;;6227202;23;20166;-87
2023/01/18 11:51:44;;;;;;;77.88;12.00;;;2.60;99.90;;;;;;6226839;23;20590;-88
2023/01/18 11:54:54;;;;;;;77.57;12.65;;;2.50;99.90;;;;;;6251198;23;20558;-87
2023/01/18 11:57:19;;;;;;;79.28;13.02;;;2.60;99.90;;;;;;6127844;23;20173;-88
2023/01/18 11:59:46;;;;;;;83.13;11.65;;;2.70;99.90;;;;;;6100838;23;20386;-87
2023/01/18 12:02:18;;;;;;;78.80;13.30;;;2.80;99.90;;;;;;6161190;23;20154;-88
2023/01/18 12:05:09;;;;;;;78.20;12.02;;;2.80;99.90;;;;;;6249568;23;20148;-88
2023/01/18 12:07:40;;;;;;;78.53;11.43;;;2.80;99.90;;;;;;6223109;23;20198;-87
2023/01/18 12:10:15;;;;;;;79.22;12.05;;;2.80;99.90;;;;;;6223143;23;20490;-87
2023/01/18 12:12:52;;;;;;;77.32;11.18;;;2.70;99.90;;;;;;6224310;23;20136;-87
2023/01/18 12:15:40;;;;;;;78.30;11.63;;;2.70;99.90;;;;;;6224406;23;20143;-87
2023/01/18 12:18:15;;;;;;;79.00;13.35;;;2.70;99.90;;;;;;6223710;23;20144;-87
2023/01/18 12:21:07;;;;;;;75.43;11.68;;;2.70;99.90;;;;;;6250881;23;20154;-87
2023/01/18 12:23:38;;;;;;;74.80;13.70;;;2.60;99.90;;;;;;6250646;23;20147;-87
2023/01/18 12:26:31;;;;;;;77.10;12.50;;;2.70;99.90;;;;;;6250127;22;20164;-87
2023/01/18 12:29:19;;;;;;;80.13;12.25;;;2.70;99.90;;;;;;6223584;23;20231;-87
2023/01/18 12:32:17;;;;;;;75.93;11.45;;;2.70;99.90;;;;;;6223864;23;20569;-87
2023/01/18 12:35:39;;;;;;;77.85;11.18;;;2.70;99.90;;;;;;6190305;23;20340;-87
2023/01/18 12:38:23;;;;;;;72.93;9.23;;;2.80;99.90;;;;;;6128902;23;20194;-87
2023/01/18 12:41:03;;;;;;;75.55;10.00;;;2.80;99.90;;;;;;6235029;22;20144;-88
2023/01/18 12:43:43;;;;;;;77.88;12.05;;;2.80;99.80;;;;;;6258213;23;20124;-87
2023/01/18 12:46:33;;;;;;;77.18;11.88;;;2.80;99.90;;;;;;6224841;22;20254;-87
2023/01/18 12:49:17;;;;;;;76.07;10.45;;;2.80;99.90;;;;;;6222299;23;20615;-87
2023/01/18 12:51:47;;;;;;;75.38;10.65;;;2.80;99.90;;;;;;6252055;23;20487;-87
2023/01/18 12:54:28;;;;;;;73.03;10.75;;;2.90;99.90;;;;;;6225490;23;20167;-87
2023/01/18 12:56:56;;;;;;;77.25;11.23;;;2.90;99.00;;;;;;6252305;22;20156;-87
2023/01/18 12:59:50;;;;;;;77.43;11.23;;;2.90;97.20;;;;;;6250639;23;20609;-87
2023/01/18 13:02:27;;;;;;;76.95;9.50;;;3.00;98.30;;;;;;6223912;23;20159;-87
2023/01/18 13:05:13;;;;;;;73.65;9.75;;;3.00;95.60;;;;;;6224352;23;20142;-87
2023/01/18 13:08:05;;;;;;;75.40;10.50;;;3.00;94.30;;;;;;6224022;23;20172;-87
2023/01/18 13:10:34;;;;;;;75.25;9.73;;;3.00;93.40;;;;;;6251380;23;20159;-87
2023/01/18 13:13:03;;;;;;;74.22;8.32;;;3.10;94.00;;;;;;6224092;23;20191;-88
2023/01/18 13:15:50;;;;;;;75.32;10.35;;;3.10;90.10;;;;;;6224707;23;20535;-87
2023/01/18 13:18:22;;;;;;;73.90;9.70;;;3.10;90.70;;;;;;6250575;23;20554;-87
2023/01/18 13:21:11;;;;;;;71.43;8.50;;;3.10;87.50;;;;;;6250712;23;20133;-87
2023/01/18 13:23:59;;;;;;;72.45;9.02;;;3.10;79.50;;;;;;6226267;23;20136;-87
2023/01/18 13:26:31;;;;;;;70.15;8.38;;;3.10;75.60;;;;;;6255484;22;20159;-87
2023/01/18 13:29:15;;;;;;;70.32;8.27;;;3.20;64.10;;;;;;6251720;23;20193;-88
2023/01/18 13:31:41;;;;;;;69.70;8.48;;;3.20;61.50;;;;;;6224174;23;20593;-87
2023/01/18 13:34:27;;;;;;;69.93;8.13;;;3.30;61.30;;;;;;6224421;23;20635;-87
2023/01/18 13:36:57;;;;;;;73.82;7.93;;;3.30;59.60;;;;;;6250440;22;20187;-88
2023/01/18 13:39:26;;;;;;;70.05;7.45;;;3.30;60.20;;;;;;6223295;23;20174;-87
2023/01/18 13:42:21;;;;;;;72.78;9.35;;;3.30;52.30;;;;;;6252497;23;20134;-87
2023/01/18 13:44:49;;;;;;;76.90;9.82;;;3.30;52.00;;;;;;6239464;22;20605;-89
2023/01/18 13:47:44;;;;;;;69.85;8.32;;;3.30;51.10;;;;;;6249750;22;20160;-87
2023/01/18 13:50:33;;;;;;;70.45;8.30;;;3.30;48.00;;;;;;6223241;23;20164;-88
2023/01/18 13:53:13;;;;;;;78.70;9.95;;;3.40;50.30;;;;;;6249926;23;20498;-87
2023/01/18 13:55:44;;;;;;;73.70;9.55;;;3.40;47.50;;;;;;6250000;22;20218;-88
2023/01/18 13:58:18;;;;;;;83.72;12.27;;;3.40;44.30;;;;;;6223539;23;20132;-87
2023/01/18 14:00:47;;;;;;;72.22;9.25;;;3.40;45.10;;;;;;6250154;23;20147;-88
2023/01/18 14:03:23;;;;;;;69.13;8.70;;;3.40;43.50;;;;;;6223229;23;20148;-88
2023/01/18 14:05:49;;;;;;;68.88;8.93;;;3.40;39.80;;;;;;6223657;22;20138;-87
2023/01/18 14:08:48;;;;;;;71.45;9.88;;;3.40;44.30;;;;;;6250796;23;20140;-88
2023/01/18 14:11:22;;;;;;;73.85;10.15;;;3.40;43.50;;;;;;6252733;23;20482;-87
2023/01/18 14:13:54;;;;;;;73.03;9.55;;;3.50;42.20;;;;;;6253206;23;20151;-87
2023/01/18 14:16:26;;;;;;;73.88;9.50;;;3.50;46.80;;;;;;6256122;22;20160;-88
2023/01/18 14:19:03;;;;;;;71.85;10.13;;;3.50;40.50;;;;;;6260017;23;20143;-88
2023/01/18 14:21:43;;;;;;;73.63;12.50;;;3.50;43.10;;;;;;6259211;23;20124;-88
2023/01/18 14:24:24;;;;;;;77.35;13.60;;;3.50;39.80;;;;;;6230635;23;20144;-88
2023/01/18 14:26:54;;;;;;;71.65;10.55;;;3.50;37.40;;;;;;6252883;22;20208;-87
2023/01/18 14:29:32;;;;;;;74.75;11.23;;;3.50;38.90;;;;;;6253191;23;20297;-87
2023/01/18 14:31:59;;;;;;;74.55;11.98;;;3.50;40.70;;;;;;6253079;23;20143;-86
2023/01/18 14:34:28;;;;;;;72.22;12.25;;;3.50;39.00;;;;;;6253577;23;20128;-87
2023/01/18 14:36:55;;;;;;;70.53;11.05;;;3.60;38.50;;;;;;6252681;22;20171;-87
2023/01/18 14:39:21;;;;;;;72.35;12.05;;;3.50;36.90;;;;;;6225801;23;20148;-87
2023/01/18 14:41:55;;;;;;;72.72;10.80;;;3.50;31.00;;;;;;6254220;23;20155;-88
2023/01/18 14:44:24;;;;;;;75.63;12.70;;;3.50;31.50;;;;;;6226584;23;20142;-87
2023/01/18 14:46:53;;;;;;;71.13;9.40;;;3.50;32.30;;;;;;6254467;22;20163;-88
2023/01/18 14:49:24;;;;;;;81.45;10.45;;;3.50;33.50;;;;;;6254988;23;20174;-87
2023/01/18 14:51:54;;;;;;;76.20;12.95;;;3.40;36.40;;;;;;6254826;23;20124;-87
2023/01/18 14:54:23;;;;;;;81.32;13.05;;;3.30;40.60;;;;;;6252794;23;20128;-88
2023/01/18 14:56:49;;;;;;;74.75;12.80;;;3.30;39.80;;;;;;6251194;22;20163;-87
2023/01/18 14:59:30;;;;;;;74.20;12.73;;;3.30;37.10;;;;;;6226531;23;20227;-87
2023/01/18 15:02:01;;;;;;;74.50;12.27;;;3.30;37.40;;;;;;6252021;23;20131;-87
2023/01/18 15:04:30;;;;;;;73.05;11.68;;;3.20;35.00;;;;;;6253773;23;20644;-87
2023/01/18 15:07:12;;;;;;;70.93;11.98;;;3.20;34.80;;;;;;6225098;23;20167;-87
2023/01/18 15:09:40;;;;;;;75.43;12.50;;;3.10;37.20;;;;;;6251791;23;20155;-87
2023/01/18 15:12:14;;;;;;;102.82;19.25;;;3.20;41.90;;;;;;6224014;23;20506;-87
2023/01/18 15:14:46;;;;;;;88.47;15.43;;;3.20;37.50;;;;;;6224024;23;20219;-87
2023/01/18 15:17:22;;;;;;;77.43;11.50;;;3.20;37.80;;;;;;6223177;23;20163;-87
2023/01/18 15:19:54;;;;;;;76.60;12.88;;;3.10;38.60;;;;;;6250999;23;20131;-87
2023/01/18 15:22:26;;;;;;;75.18;13.32;;;3.00;41.50;;;;;;6251203;23;20139;-88
2023/01/18 15:24:56;;;;;;;72.72;11.90;;;2.90;43.50;;;;;;6224120;23;20136;-87
2023/01/18 15:27:22;;;;;;;74.85;12.60;;;2.80;45.30;;;;;;6251298;22;20160;-87
2023/01/18 15:29:53;;;;;;;73.20;12.00;;;2.70;44.90;;;;;;6251251;23;20226;-87
2023/01/18 15:32:22;;;;;;;72.85;11.95;;;2.70;46.50;;;;;;6224258;23;20165;-88
2023/01/18 15:34:51;;;;;;;71.20;11.77;;;2.60;50.60;;;;;;6251259;23;20136;-87
2023/01/18 15:37:38;;;;;;;72.72;11.40;;;2.60;52.60;;;;;;6224366;23;20160;-87
2023/01/18 15:40:13;;;;;;;71.85;12.07;;;2.60;52.10;;;;;;6251109;23;20132;-87
2023/01/18 15:42:57;;;;;;;75.45;11.48;;;2.50;53.90;;;;;;6224279;23;20154;-88
2023/01/18 15:45:31;;;;;;;72.50;10.43;;;2.40;56.30;;;;;;6224185;23;20170;-88
2023/01/18 15:48:04;;;;;;;75.43;13.48;;;2.40;60.10;;;;;;6251036;22;20164;-87
2023/01/18 15:50:36;;;;;;;73.18;11.05;;;2.40;62.40;;;;;;6252738;23;20162;-87
2023/01/18 15:53:05;;;;;;;80.80;8.80;;;2.30;68.90;;;;;;6251735;23;20361;-89
2023/01/18 15:55:49;;;;;;;73.55;9.50;;;2.20;66.60;;;;;;6257280;23;20140;-89
2023/01/18 15:58:30;;;;;;;69.72;7.78;;;2.10;72.60;;;;;;6229983;23;20136;-88
2023/01/18 16:01:06;;;;;;;81.38;13.43;;;2.10;75.60;;;;;;6229317;23;20193;-88
2023/01/18 16:03:51;;;;;;;80.28;12.18;;;2.00;72.00;;;;;;6254542;23;20133;-88
2023/01/18 16:06:39;;;;;;;79.05;11.98;;;2.00;74.50;;;;;;6224192;23;20620;-88
2023/01/18 16:09:19;;;;;;;77.85;12.75;;;2.00;71.30;;;;;;6225444;23;20144;-88
2023/01/18 16:11:55;;;;;;;72.95;9.50;;;2.00;72.70;;;;;;6223685;23;20136;-88
2023/01/18 16:14:26;;;;;;;74.20;10.18;;;2.00;72.10;;;;;;6251400;23;20458;-87
2023/01/18 16:16:54;;;;;;;79.13;13.27;;;2.00;68.90;;;;;;6253001;22;20160;-88
2023/01/18 16:19:30;;;;;;;76.90;11.85;;;2.00;69.90;;;;;;6255051;23;20163;-87
2023/01/18 16:22:04;;;;;;;74.32;10.60;;;2.00;69.90;;;;;;6256528;23;20214;-87
2023/01/18 16:24:48;;;;;;;75.07;10.40;;;1.90;69.70;;;;;;6260927;23;20135;-86
2023/01/18 16:27:20;;;;;;;74.63;10.00;;;1.90;73.30;;;;;;6231305;23;20171;-87
2023/01/18 16:40:54;;;;;;;70.30;9.40;;;1.70;81.50;;;;;;6001541;23;20153;-86